Time;durP1;ratioP1;P1;durP2;ratioP2;P2;SDS_P1;SDS_P2;PMS_P1;PMS_P2;Temp;Humidity;BMP_temperature;BMP_pressure;BME280_temperature;BME280_humidity;BME280_pressure;Samples;Min_cycle;Max_cycle;Signal;HPM_P1;HPM_P2
2020/12/20 00:00:28;;;;;;;1.17;0.60;;;14.90;69.10;;;;;;4982766;28;20049;-78
2020/12/20 00:02:59;;;;;;;1.25;0.73;;;14.90;69.10;;;;;;4990826;28;20050;-77
2020/12/20 00:05:30;;;;;;;1.23;0.70;;;14.80;69.10;;;;;;4982291;28;20030;-77
2020/12/20 00:08:10;;;;;;;1.33;0.70;;;14.90;69.10;;;;;;4999779;28;20030;-77
2020/12/20 00:10:47;;;;;;;1.10;1.02;;;14.90;69.10;;;;;;4986173;28;20037;-78
2020/12/20 00:13:22;;;;;;;0.73;0.70;;;14.90;69.10;;;;;;4987854;28;20049;-78
2020/12/20 00:16:04;;;;;;;1.38;1.27;;;14.90;69.10;;;;;;5001729;28;20116;-78
2020/12/20 00:18:42;;;;;;;1.05;0.93;;;14.90;69.10;;;;;;5001943;28;20085;-77
2020/12/20 00:21:10;;;;;;;1.38;0.88;;;14.90;69.10;;;;;;5002255;28;20062;-77
2020/12/20 00:23:52;;;;;;;1.00;0.68;;;14.90;69.10;;;;;;4990116;28;20129;-79
2020/12/20 00:26:18;;;;;;;2.53;0.98;;;14.90;69.10;;;;;;4986368;28;20042;-78
2020/12/20 00:28:46;;;;;;;1.63;0.90;;;14.90;69.10;;;;;;5000371;28;20131;-77
2020/12/20 00:31:17;;;;;;;1.08;0.95;;;14.90;69.10;;;;;;5000162;28;20041;-77
2020/12/20 00:33:45;;;;;;;1.40;0.90;;;14.90;69.10;;;;;;4989641;28;20154;-77
2020/12/20 00:36:14;;;;;;;0.82;0.80;;;14.90;69.10;;;;;;5005064;28;20026;-77
2020/12/20 00:38:46;;;;;;;0.80;0.80;;;14.90;69.10;;;;;;5001458;28;20188;-77
2020/12/20 00:41:20;;;;;;;0.82;0.77;;;14.90;69.20;;;;;;5005775;28;20045;-77
2020/12/20 00:43:58;;;;;;;0.82;0.70;;;14.90;69.10;;;;;;4968670;28;20966;-78
2020/12/20 00:46:38;;;;;;;1.13;0.70;;;14.90;69.10;;;;;;5002647;28;20037;-79
2020/12/20 00:49:12;;;;;;;0.95;0.65;;;14.80;69.10;;;;;;4986231;28;20034;-78
2020/12/20 00:51:38;;;;;;;1.02;0.80;;;14.90;69.10;;;;;;4991699;28;20041;-78
2020/12/20 00:54:07;;;;;;;1.33;0.95;;;14.80;69.10;;;;;;4993623;28;20092;-78
2020/12/20 00:56:35;;;;;;;1.20;0.80;;;14.90;69.10;;;;;;4995821;28;20042;-77
2020/12/20 00:59:15;;;;;;;;;;;14.90;69.10;;;;;;5005602;28;20030;-79
2020/12/20 01:01:41;;;;;;;2.03;1.00;;;14.90;69.00;;;;;;4986175;28;21591;-77
2020/12/20 01:04:17;;;;;;;1.35;1.00;;;14.90;69.10;;;;;;5010684;28;20069;-77
2020/12/20 01:06:46;;;;;;;1.90;1.00;;;14.90;69.10;;;;;;4990145;28;20045;-77
2020/12/20 01:09:21;;;;;;;0.70;0.60;;;14.90;69.10;;;;;;4991226;28;20030;-77
2020/12/20 01:12:03;;;;;;;1.02;0.70;;;14.90;69.10;;;;;;5003320;28;20045;-78
2020/12/20 01:14:34;;;;;;;0.95;0.75;;;14.80;69.10;;;;;;5003451;28;20456;-77
2020/12/20 01:17:03;;;;;;;2.33;1.00;;;14.90;69.10;;;;;;5003299;28;20046;-79
2020/12/20 01:19:50;;;;;;;0.70;0.70;;;14.90;69.10;;;;;;5008914;28;20037;-77
2020/12/20 01:22:20;;;;;;;1.27;0.75;;;14.90;69.10;;;;;;4986109;28;20034;-79
2020/12/20 01:25:11;;;;;;;0.80;0.70;;;14.80;69.10;;;;;;5005296;28;20810;-77
2020/12/20 01:27:47;;;;;;;0.98;0.80;;;14.80;69.10;;;;;;4985716;28;20042;-77
2020/12/20 01:30:37;;;;;;;1.75;0.70;;;14.80;69.10;;;;;;4999325;28;20612;-78
2020/12/20 01:33:12;;;;;;;1.90;0.88;;;14.80;69.10;;;;;;4982778;28;20066;-78
2020/12/20 01:35:44;;;;;;;0.50;0.50;;;14.90;69.10;;;;;;4985976;28;20173;-79
2020/12/20 01:38:10;;;;;;;1.52;0.88;;;14.90;69.10;;;;;;4986487;28;20616;-77
2020/12/20 01:40:42;;;;;;;1.35;0.80;;;14.80;69.10;;;;;;5000991;28;20510;-77
2020/12/20 01:43:08;;;;;;;1.95;1.20;;;14.80;69.10;;;;;;4998813;28;20124;-78
2020/12/20 01:45:38;;;;;;;1.00;0.90;;;14.80;69.10;;;;;;4981566;28;20506;-78
2020/12/20 01:48:26;;;;;;;1.52;0.68;;;14.90;69.10;;;;;;4984304;28;20086;-78
2020/12/20 01:50:55;;;;;;;1.25;0.90;;;14.90;69.10;;;;;;4985284;28;20046;-78
2020/12/20 01:53:25;;;;;;;1.25;1.00;;;14.90;69.10;;;;;;5002940;28;20142;-77
2020/12/20 01:55:58;;;;;;;1.10;0.88;;;14.90;69.10;;;;;;4989525;28;20046;-79
2020/12/20 01:58:27;;;;;;;1.45;1.00;;;14.80;69.10;;;;;;5000171;28;20038;-77
2020/12/20 02:00:54;;;;;;;1.20;1.08;;;14.90;69.10;;;;;;4979943;28;20089;-77
2020/12/20 02:03:24;;;;;;;0.68;0.65;;;14.90;69.10;;;;;;4980797;28;20633;-77
2020/12/20 02:05:55;;;;;;;0.70;0.70;;;14.90;69.10;;;;;;5001448;28;20089;-77
2020/12/20 02:08:25;;;;;;;1.08;1.00;;;14.80;69.10;;;;;;4980532;28;20120;-77
2020/12/20 02:11:12;;;;;;;1.10;0.90;;;14.80;69.10;;;;;;4983206;28;20053;-80
2020/12/20 02:13:56;;;;;;;1.67;0.93;;;14.80;69.10;;;;;;4979482;28;20133;-77
2020/12/20 02:16:29;;;;;;;1.00;0.88;;;14.80;69.10;;;;;;4967702;28;20034;-78
2020/12/20 02:19:21;;;;;;;1.00;0.85;;;14.80;69.00;;;;;;4986355;28;21402;-77
2020/12/20 02:21:55;;;;;;;0.98;0.88;;;14.80;69.10;;;;;;4984600;28;20030;-78
2020/12/20 02:24:23;;;;;;;1.13;0.88;;;14.90;69.10;;;;;;4986060;28;20492;-77
2020/12/20 02:27:10;;;;;;;1.05;0.80;;;14.80;69.00;;;;;;4982742;28;20082;-77
2020/12/20 02:29:37;;;;;;;1.83;0.60;;;14.80;69.10;;;;;;4981030;28;20049;-77
2020/12/20 02:32:03;;;;;;;0.85;0.77;;;14.80;69.10;;;;;;4982217;28;21455;-77
2020/12/20 02:34:36;;;;;;;1.77;0.88;;;14.80;69.10;;;;;;4963967;28;20043;-77
2020/12/20 02:37:02;;;;;;;1.10;1.00;;;14.80;69.10;;;;;;4964280;28;20488;-77
2020/12/20 02:39:31;;;;;;;1.20;0.68;;;14.80;69.00;;;;;;4966721;28;20094;-77
2020/12/20 02:42:00;;;;;;;0.80;0.80;;;14.80;69.10;;;;;;4961625;28;20034;-77
2020/12/20 02:44:29;;;;;;;0.77;0.70;;;14.80;69.00;;;;;;4965603;28;20235;-77
2020/12/20 02:46:55;;;;;;;1.23;0.93;;;14.80;69.10;;;;;;4964116;28;20039;-77
2020/12/20 02:49:20;;;;;;;1.73;0.77;;;14.80;69.10;;;;;;4966288;28;20414;-77
2020/12/20 02:52:05;;;;;;;0.90;0.90;;;14.80;69.10;;;;;;4967904;28;20105;-77
2020/12/20 02:54:38;;;;;;;1.25;0.90;;;14.90;69.10;;;;;;4982968;28;20031;-79
2020/12/20 02:57:07;;;;;;;1.40;1.00;;;14.80;69.00;;;;;;4962143;28;20034;-78
2020/12/20 02:59:47;;;;;;;1.35;0.95;;;14.80;69.10;;;;;;4976243;28;20039;-77
2020/12/20 03:02:12;;;;;;;2.15;1.00;;;14.80;69.10;;;;;;4947141;28;20452;-78
2020/12/20 03:04:53;;;;;;;1.50;0.98;;;14.80;69.10;;;;;;4984351;28;20077;-77
2020/12/20 03:07:20;;;;;;;1.30;0.80;;;14.80;69.10;;;;;;4947611;28;20394;-77
2020/12/20 03:09:50;;;;;;;0.85;0.73;;;14.80;69.10;;;;;;4965433;28;20034;-77
2020/12/20 03:12:17;;;;;;;1.23;1.00;;;14.80;69.00;;;;;;4966710;28;20381;-78
2020/12/20 03:14:47;;;;;;;;;;;14.80;69.10;;;;;;4969783;28;20027;-77
2020/12/20 03:17:19;;;;;;;0.82;0.80;;;14.90;69.10;;;;;;4978498;28;20004;-78
2020/12/20 03:19:48;;;;;;;1.13;0.80;;;14.80;69.10;;;;;;4954111;28;20108;-77
2020/12/20 03:22:17;;;;;;;0.65;0.65;;;14.80;69.10;;;;;;4969948;28;20496;-77
2020/12/20 03:24:48;;;;;;;0.68;0.68;;;14.80;69.10;;;;;;4948859;28;20050;-77
2020/12/20 03:27:13;;;;;;;1.48;1.00;;;14.80;69.10;;;;;;4935184;28;20097;-77
2020/12/20 03:29:43;;;;;;;1.15;0.90;;;14.80;69.10;;;;;;4978483;28;20433;-78
2020/12/20 03:32:10;;;;;;;1.85;1.30;;;14.80;69.10;;;;;;4975628;28;20036;-78
2020/12/20 03:34:39;;;;;;;0.75;0.70;;;14.80;69.10;;;;;;4985981;28;20558;-77
2020/12/20 03:37:07;;;;;;;0.90;0.90;;;14.80;69.10;;;;;;5000313;28;20042;-77
2020/12/20 03:39:33;;;;;;;;;;;14.80;69.10;;;;;;4995269;28;20390;-78
2020/12/20 03:42:04;;;;;;;1.50;0.88;;;14.80;69.10;;;;;;5001376;28;19913;-77
2020/12/20 03:44:30;;;;;;;1.10;0.90;;;14.80;69.10;;;;;;4982929;28;20038;-77
2020/12/20 03:47:04;;;;;;;1.80;1.38;;;14.80;69.10;;;;;;4996100;28;20500;-77
2020/12/20 03:49:35;;;;;;;1.30;0.90;;;14.80;69.10;;;;;;4990497;28;20069;-77
2020/12/20 03:52:05;;;;;;;0.77;0.70;;;14.80;69.10;;;;;;4988996;28;20133;-77
2020/12/20 03:54:36;;;;;;;2.47;0.80;;;14.80;69.10;;;;;;4982845;28;20026;-78
2020/12/20 03:57:14;;;;;;;1.48;1.17;;;14.80;69.10;;;;;;5002506;28;20030;-78
2020/12/20 03:59:53;;;;;;;1.08;0.90;;;14.80;69.10;;;;;;4982023;28;20038;-77
2020/12/20 04:02:22;;;;;;;1.10;0.77;;;14.80;69.10;;;;;;4983971;28;20480;-77
2020/12/20 04:04:51;;;;;;;1.42;0.75;;;14.80;69.10;;;;;;4985873;28;20489;-78
2020/12/20 04:07:22;;;;;;;0.98;0.85;;;14.80;69.10;;;;;;4992557;28;20085;-79
2020/12/20 04:10:01;;;;;;;1.05;0.80;;;14.80;69.10;;;;;;5001756;28;20034;-77
2020/12/20 04:12:26;;;;;;;1.67;1.10;;;14.80;69.10;;;;;;4982428;28;20058;-79
2020/12/20 04:14:59;;;;;;;1.77;1.10;;;14.80;69.10;;;;;;4983206;28;20555;-78
2020/12/20 04:17:28;;;;;;;1.13;0.90;;;14.80;69.10;;;;;;4985292;28;20057;-77
2020/12/20 04:19:57;;;;;;;1.10;1.00;;;14.80;69.10;;;;;;4992326;28;20499;-77
2020/12/20 04:22:27;;;;;;;0.80;0.80;;;14.80;69.10;;;;;;4989681;28;20508;-78
2020/12/20 04:25:00;;;;;;;0.63;0.63;;;14.80;69.10;;;;;;4989250;28;20507;-77
2020/12/20 04:27:31;;;;;;;1.20;0.90;;;14.80;69.10;;;;;;4983494;28;20042;-77
2020/12/20 04:29:58;;;;;;;0.80;0.80;;;14.80;69.10;;;;;;5003514;28;20388;-76
2020/12/20 04:32:27;;;;;;;1.25;0.70;;;14.80;69.10;;;;;;4983725;28;20141;-77
2020/12/20 04:35:12;;;;;;;1.17;1.05;;;14.80;69.10;;;;;;4990606;28;20046;-77
2020/12/20 04:37:43;;;;;;;1.13;0.98;;;14.80;69.10;;;;;;4987285;28;20480;-76
2020/12/20 04:40:11;;;;;;;1.08;0.73;;;14.80;69.10;;;;;;4986407;28;20066;-77
2020/12/20 04:42:44;;;;;;;1.15;0.77;;;14.80;69.10;;;;;;4982005;28;20489;-77
2020/12/20 04:45:11;;;;;;;1.38;0.93;;;14.80;69.10;;;;;;4982932;28;20045;-77
2020/12/20 04:47:46;;;;;;;0.80;0.73;;;14.80;69.10;;;;;;4969587;28;20042;-77
2020/12/20 04:50:17;;;;;;;1.10;0.88;;;14.80;69.10;;;;;;5009848;28;20496;-77
2020/12/20 04:52:53;;;;;;;0.95;0.75;;;14.80;69.10;;;;;;4987712;28;20443;-77
2020/12/20 04:55:21;;;;;;;1.85;1.00;;;14.80;69.10;;;;;;4986034;28;20089;-77
2020/12/20 04:57:56;;;;;;;0.90;0.85;;;14.80;69.00;;;;;;4983893;28;20105;-77
2020/12/20 05:00:24;;;;;;;0.77;0.70;;;14.80;69.10;;;;;;4980837;28;20078;-78
2020/12/20 05:02:50;;;;;;;0.70;0.70;;;14.80;69.10;;;;;;4998534;28;20038;-78
2020/12/20 05:05:16;;;;;;;0.95;0.80;;;14.80;69.10;;;;;;4987197;28;20472;-78
2020/12/20 05:07:45;;;;;;;1.20;0.80;;;14.80;69.10;;;;;;4986910;28;20042;-77
2020/12/20 05:10:12;;;;;;;1.00;0.80;;;14.80;69.10;;;;;;4984570;28;20575;-81
2020/12/20 05:12:38;;;;;;;0.60;0.60;;;14.80;69.10;;;;;;5000738;28;20535;-78
2020/12/20 05:15:25;;;;;;;1.20;1.08;;;14.80;69.10;;;;;;4985011;28;20121;-78
2020/12/20 05:18:08;;;;;;;1.38;0.75;;;14.80;69.10;;;;;;5000161;28;20464;-78
2020/12/20 05:20:40;;;;;;;1.25;0.90;;;14.80;69.10;;;;;;4996159;28;20069;-78
2020/12/20 05:23:08;;;;;;;0.85;0.70;;;14.80;69.10;;;;;;4991487;28;20109;-78
2020/12/20 05:25:40;;;;;;;0.70;0.70;;;14.80;69.10;;;;;;4986370;28;20030;-78
2020/12/20 05:28:12;;;;;;;2.00;1.20;;;14.80;69.10;;;;;;4985360;28;20030;-78
2020/12/20 05:30:43;;;;;;;1.50;0.95;;;14.80;69.10;;;;;;5000922;28;20447;-78
2020/12/20 05:33:31;;;;;;;1.45;1.02;;;14.80;69.10;;;;;;4994159;28;20050;-78
2020/12/20 05:35:59;;;;;;;0.95;0.70;;;14.80;69.10;;;;;;5007230;28;20145;-78
2020/12/20 05:38:29;;;;;;;1.47;0.80;;;14.80;69.10;;;;;;5005408;28;20037;-78
2020/12/20 05:40:59;;;;;;;0.98;0.70;;;14.80;69.10;;;;;;4988435;28;20355;-78
2020/12/20 05:43:31;;;;;;;1.35;0.80;;;14.80;69.10;;;;;;5002038;28;20030;-78
2020/12/20 05:46:00;;;;;;;0.60;0.60;;;14.80;69.10;;;;;;4988589;28;20120;-77
2020/12/20 05:48:34;;;;;;;0.95;0.70;;;14.80;69.10;;;;;;4988401;28;20029;-78
2020/12/20 05:51:11;;;;;;;1.40;1.10;;;14.80;69.10;;;;;;4996556;28;20042;-77
2020/12/20 05:53:39;;;;;;;0.60;0.60;;;14.80;69.10;;;;;;5005060;28;20065;-78
2020/12/20 05:56:16;;;;;;;1.15;1.02;;;14.80;69.10;;;;;;4989452;28;20866;-78
2020/12/20 05:58:48;;;;;;;0.95;0.90;;;14.80;69.10;;;;;;5005142;28;20089;-78
2020/12/20 06:01:28;;;;;;;1.05;0.90;;;14.80;69.10;;;;;;5005914;28;20038;-78
2020/12/20 06:03:57;;;;;;;1.08;0.90;;;14.80;69.10;;;;;;4988204;28;20038;-78
2020/12/20 06:06:30;;;;;;;1.48;0.90;;;14.80;69.10;;;;;;5007507;28;20034;-78
2020/12/20 06:09:02;;;;;;;0.85;0.80;;;14.80;69.10;;;;;;4989307;28;20037;-78
2020/12/20 06:11:32;;;;;;;0.68;0.60;;;14.80;69.10;;;;;;5005719;28;20503;-78
2020/12/20 06:14:00;;;;;;;0.75;0.75;;;14.80;69.10;;;;;;4986113;28;20484;-79
2020/12/20 06:16:33;;;;;;;1.25;0.90;;;14.80;69.10;;;;;;4986726;28;20040;-78
2020/12/20 06:19:03;;;;;;;1.40;0.98;;;14.80;69.10;;;;;;5000485;28;20044;-79
2020/12/20 06:21:51;;;;;;;1.10;0.90;;;14.80;69.10;;;;;;4986950;28;20436;-78
2020/12/20 06:24:22;;;;;;;1.05;0.80;;;14.80;69.10;;;;;;5004163;28;20053;-78
2020/12/20 06:27:02;;;;;;;1.00;0.70;;;14.80;69.10;;;;;;5004003;28;20038;-78
2020/12/20 06:29:35;;;;;;;1.50;0.82;;;14.80;69.10;;;;;;4984548;28;20403;-78
2020/12/20 06:32:17;;;;;;;0.70;0.70;;;14.80;69.10;;;;;;4992609;28;20096;-77
2020/12/20 06:35:09;;;;;;;1.20;0.88;;;14.80;69.10;;;;;;5004369;28;20060;-77
2020/12/20 06:37:49;;;;;;;0.88;0.77;;;14.80;69.10;;;;;;4984950;28;20034;-77
2020/12/20 06:40:29;;;;;;;0.70;0.70;;;14.80;69.10;;;;;;4986152;28;20042;-78
2020/12/20 06:43:16;;;;;;;1.58;0.98;;;14.80;69.10;;;;;;5007585;28;20038;-77
2020/12/20 06:45:46;;;;;;;1.27;0.90;;;14.80;69.10;;;;;;4980599;28;20037;-78
2020/12/20 06:48:37;;;;;;;1.00;0.90;;;14.80;69.10;;;;;;4981073;28;20403;-77
2020/12/20 06:51:26;;;;;;;1.33;1.00;;;14.80;69.10;;;;;;4985125;28;20046;-79
2020/12/20 06:53:57;;;;;;;1.20;0.90;;;14.80;69.10;;;;;;5002836;28;20406;-78
2020/12/20 06:56:24;;;;;;;1.23;0.80;;;14.80;69.20;;;;;;4985177;28;20104;-77
2020/12/20 06:58:54;;;;;;;1.20;0.80;;;14.80;69.10;;;;;;5003034;28;20038;-78
2020/12/20 07:01:45;;;;;;;1.02;0.82;;;14.80;69.10;;;;;;4985489;28;20046;-80
2020/12/20 07:04:34;;;;;;;1.67;1.00;;;14.80;69.10;;;;;;4985028;28;20495;-78
2020/12/20 07:07:12;;;;;;;1.23;0.88;;;14.80;69.10;;;;;;4986610;28;20045;-78
2020/12/20 07:09:41;;;;;;;1.25;0.90;;;14.80;69.10;;;;;;4986258;28;20483;-78
2020/12/20 07:12:43;;;;;;;1.40;0.85;;;14.80;69.10;;;;;;4985633;28;20613;-77
2020/12/20 07:15:44;;;;;;;1.40;0.98;;;14.80;69.10;;;;;;5002344;28;20434;-77
2020/12/20 07:18:49;;;;;;;1.10;0.82;;;14.80;69.10;;;;;;4989563;28;20128;-77
2020/12/20 07:21:26;;;;;;;1.17;1.00;;;14.80;69.10;;;;;;4988657;28;20040;-77
2020/12/20 07:24:09;;;;;;;0.60;0.60;;;14.80;69.10;;;;;;5002327;28;20034;-78
2020/12/20 07:26:42;;;;;;;1.35;1.20;;;14.80;69.10;;;;;;5001591;28;20033;-79
2020/12/20 07:29:08;;;;;;;2.08;0.90;;;14.80;69.10;;;;;;5002388;28;20029;-77
2020/12/20 07:31:54;;;;;;;1.55;1.00;;;14.80;69.10;;;;;;4983900;28;20044;-78
2020/12/20 07:34:22;;;;;;;1.23;0.80;;;14.80;69.10;;;;;;4984065;28;20392;-77
2020/12/20 07:36:58;;;;;;;0.68;0.60;;;14.80;69.00;;;;;;4963223;28;20498;-78
2020/12/20 07:39:29;;;;;;;1.20;0.88;;;14.80;69.00;;;;;;4964346;28;20050;-79
2020/12/20 07:41:59;;;;;;;2.38;0.90;;;14.80;69.00;;;;;;4957609;28;20039;-78
2020/12/20 07:44:25;;;;;;;0.73;0.63;;;14.80;69.00;;;;;;4977148;28;20396;-78
2020/12/20 07:47:16;;;;;;;1.88;0.88;;;14.80;69.00;;;;;;4981253;28;20047;-79
2020/12/20 07:50:01;;;;;;;1.10;0.98;;;14.80;69.00;;;;;;4965434;28;20043;-78
2020/12/20 07:52:36;;;;;;;1.08;0.85;;;14.80;69.00;;;;;;4967401;28;20035;-78
2020/12/20 07:55:04;;;;;;;1.08;0.98;;;14.80;69.00;;;;;;4960904;28;20126;-79
2020/12/20 07:57:33;;;;;;;1.00;0.90;;;14.80;69.00;;;;;;4958399;28;20117;-77
2020/12/20 08:00:06;;;;;;;;;;;14.80;69.00;;;;;;4958535;28;20153;-79
2020/12/20 08:02:41;;;;;;;0.70;0.70;;;14.80;68.90;;;;;;4953822;28;19918;-78
2020/12/20 08:05:18;;;;;;;1.10;0.80;;;14.80;68.90;;;;;;4961544;28;20046;-79
2020/12/20 08:07:45;;;;;;;0.82;0.80;;;14.80;68.90;;;;;;4963630;28;21481;-78
2020/12/20 08:10:10;;;;;;;1.33;0.88;;;14.80;68.90;;;;;;4967530;28;20038;-78
2020/12/20 08:12:39;;;;;;;2.20;0.80;;;14.80;68.90;;;;;;4961494;28;20065;-78
2020/12/20 08:15:09;;;;;;;0.93;0.80;;;14.80;68.90;;;;;;4962464;28;20121;-77
2020/12/20 08:17:42;;;;;;;0.88;0.80;;;14.80;68.90;;;;;;4959842;28;20408;-78
2020/12/20 08:20:22;;;;;;;1.38;0.85;;;14.80;68.90;;;;;;4966192;28;20053;-78
2020/12/20 08:22:59;;;;;;;1.65;1.25;;;14.80;68.90;;;;;;4978539;28;20038;-78
2020/12/20 08:25:27;;;;;;;0.88;0.85;;;14.80;68.80;;;;;;4978378;28;20129;-78
2020/12/20 08:28:00;;;;;;;2.42;0.75;;;14.80;68.80;;;;;;4961102;28;20039;-79
2020/12/20 08:30:29;;;;;;;0.73;0.70;;;14.80;68.80;;;;;;4960528;28;20045;-79
2020/12/20 08:33:13;;;;;;;1.10;0.93;;;14.80;68.80;;;;;;4970813;28;20507;-80
2020/12/20 08:35:41;;;;;;;1.02;0.80;;;14.80;68.70;;;;;;4977551;28;20044;-78
2020/12/20 08:38:18;;;;;;;1.10;1.00;;;14.80;68.70;;;;;;4981898;28;20034;-77
2020/12/20 08:40:47;;;;;;;1.17;0.90;;;14.80;68.70;;;;;;4981817;28;20085;-78
2020/12/20 08:43:37;;;;;;;0.77;0.60;;;14.90;68.70;;;;;;4978626;28;20074;-78
2020/12/20 08:46:02;;;;;;;1.08;0.90;;;14.80;68.70;;;;;;4986328;28;20073;-78
2020/12/20 08:48:32;;;;;;;1.23;0.95;;;14.80;68.70;;;;;;4976001;28;20062;-77
2020/12/20 08:51:01;;;;;;;0.65;0.65;;;14.80;68.70;;;;;;4980698;28;20039;-77
2020/12/20 08:53:30;;;;;;;1.25;1.02;;;14.80;68.70;;;;;;4981874;28;20061;-78
2020/12/20 08:55:58;;;;;;;0.70;0.63;;;14.80;68.70;;;;;;4976882;28;20076;-78
2020/12/20 08:58:47;;;;;;;0.70;0.70;;;14.80;68.70;;;;;;4993890;28;20096;-78
2020/12/20 09:01:13;;;;;;;0.63;0.60;;;14.80;68.70;;;;;;5001364;28;20061;-78
2020/12/20 09:03:46;;;;;;;0.80;0.60;;;14.80;68.70;;;;;;4992312;28;20076;-78
2020/12/20 09:06:18;;;;;;;1.25;0.90;;;14.90;68.60;;;;;;5000159;28;20037;-77
2020/12/20 09:08:48;;;;;;;1.60;1.00;;;14.90;68.60;;;;;;4993693;28;20034;-77
2020/12/20 09:11:24;;;;;;;1.33;0.80;;;14.90;68.60;;;;;;4972818;28;20038;-78
2020/12/20 09:13:55;;;;;;;1.05;0.90;;;14.90;68.60;;;;;;4973225;28;20085;-79
2020/12/20 09:16:25;;;;;;;0.73;0.68;;;14.80;68.60;;;;;;4992834;28;20034;-79
2020/12/20 09:18:56;;;;;;;0.93;0.73;;;14.90;68.60;;;;;;5000040;28;20530;-78
2020/12/20 09:21:26;;;;;;;0.70;0.70;;;14.90;68.70;;;;;;4987758;28;20074;-77
2020/12/20 09:24:01;;;;;;;1.77;0.77;;;14.90;68.70;;;;;;5003816;28;20073;-77
2020/12/20 09:26:29;;;;;;;1.13;0.90;;;14.80;68.70;;;;;;4988058;28;20057;-77
2020/12/20 09:29:05;;;;;;;1.30;0.93;;;14.80;68.70;;;;;;4970242;28;20033;-77
2020/12/20 09:31:33;;;;;;;1.58;0.90;;;14.90;68.70;;;;;;4983148;28;20394;-77
2020/12/20 09:34:02;;;;;;;1.05;0.80;;;14.90;68.70;;;;;;4980191;28;20384;-76
2020/12/20 09:36:33;;;;;;;0.80;0.75;;;14.90;68.60;;;;;;5010554;28;20133;-77
2020/12/20 09:39:03;;;;;;;0.50;0.50;;;14.90;68.60;;;;;;4985995;28;20041;-78
2020/12/20 09:41:32;;;;;;;1.17;0.95;;;14.90;68.60;;;;;;5003855;28;20149;-77
2020/12/20 09:44:01;;;;;;;0.75;0.70;;;14.90;68.60;;;;;;4987846;28;20553;-76
2020/12/20 09:46:35;;;;;;;0.77;0.70;;;14.90;68.60;;;;;;5003558;28;20794;-76
2020/12/20 09:49:06;;;;;;;1.38;0.70;;;14.90;68.50;;;;;;5003732;28;20068;-78
2020/12/20 09:51:48;;;;;;;0.90;0.70;;;14.90;68.50;;;;;;5005097;28;20058;-77
2020/12/20 09:54:31;;;;;;;1.05;0.93;;;14.90;68.50;;;;;;4997064;28;20088;-75
2020/12/20 09:57:00;;;;;;;1.17;0.85;;;14.90;68.50;;;;;;4988967;28;20038;-75
2020/12/20 09:59:37;;;;;;;0.70;0.52;;;14.90;68.40;;;;;;4993730;28;20485;-75
2020/12/20 10:02:23;;;;;;;;;;;;;;;;;;;;;
2020/12/20 10:05:07;;;;;;;1.00;0.90;;;14.90;68.40;;;;;;4987545;28;20044;-78
2020/12/20 10:07:35;;;;;;;0.88;0.82;;;15.00;68.30;;;;;;5005990;28;20037;-77
2020/12/20 10:10:06;;;;;;;0.82;0.68;;;15.00;68.20;;;;;;4986675;28;20041;-78
2020/12/20 10:12:37;;;;;;;1.05;0.95;;;15.00;68.20;;;;;;4988255;28;20522;-78
2020/12/20 10:15:24;;;;;;;1.23;1.10;;;15.00;68.20;;;;;;5011294;28;20519;-77
2020/12/20 10:18:25;;;;;;;1.30;0.80;;;15.00;68.10;;;;;;4984000;28;20251;-78
2020/12/20 10:20:58;;;;;;;0.63;0.50;;;15.00;68.10;;;;;;4987621;28;20114;-78
2020/12/20 10:23:26;;;;;;;0.80;0.70;;;15.00;68.10;;;;;;4988827;28;20053;-77
2020/12/20 10:26:04;;;;;;;0.73;0.60;;;15.00;68.20;;;;;;5011988;28;20030;-77
2020/12/20 10:28:33;;;;;;;0.90;0.70;;;15.00;68.20;;;;;;4992972;28;20038;-78
2020/12/20 10:31:07;;;;;;;1.15;0.90;;;15.00;68.20;;;;;;4993203;28;20518;-77
2020/12/20 10:33:37;;;;;;;1.08;0.85;;;15.00;68.30;;;;;;5007634;28;20488;-78
2020/12/20 10:36:03;;;;;;;0.98;0.77;;;15.00;68.30;;;;;;4998394;28;20056;-77
2020/12/20 10:38:28;;;;;;;0.88;0.60;;;14.90;68.20;;;;;;5016480;28;20486;-79
2020/12/20 10:41:12;;;;;;;1.67;1.08;;;15.00;68.30;;;;;;5007711;28;20042;-77
2020/12/20 10:43:48;;;;;;;0.70;0.70;;;14.90;68.30;;;;;;5002744;28;20034;-77
2020/12/20 10:46:36;;;;;;;1.23;0.98;;;15.00;68.30;;;;;;5003425;28;20034;-77
2020/12/20 10:49:17;;;;;;;0.75;0.75;;;14.90;68.30;;;;;;5010931;28;20030;-77
2020/12/20 10:51:57;;;;;;;0.90;0.70;;;15.00;68.30;;;;;;5007137;28;20395;-77
2020/12/20 10:54:29;;;;;;;1.00;0.60;;;15.00;68.30;;;;;;4992966;28;20436;-77
2020/12/20 10:56:59;;;;;;;0.63;0.63;;;15.00;68.20;;;;;;5005618;28;20037;-77
2020/12/20 10:59:30;;;;;;;1.83;0.90;;;15.00;68.20;;;;;;4986778;28;20030;-77
2020/12/20 11:02:01;;;;;;;1.60;1.33;;;15.00;68.20;;;;;;4995347;28;20037;-78
2020/12/20 11:04:26;;;;;;;0.60;0.60;;;15.00;68.20;;;;;;4990500;28;20044;-77
2020/12/20 11:06:57;;;;;;;1.30;0.73;;;15.00;68.20;;;;;;5015874;28;20068;-77
2020/12/20 11:09:48;;;;;;;1.15;0.82;;;15.00;68.10;;;;;;5012599;28;20399;-77
2020/12/20 11:12:21;;;;;;;0.95;0.77;;;15.00;68.20;;;;;;4992771;28;20042;-77
2020/12/20 11:14:59;;;;;;;0.70;0.70;;;15.00;68.10;;;;;;5008776;28;20035;-77
2020/12/20 11:17:28;;;;;;;0.75;0.75;;;15.00;68.20;;;;;;4987916;28;20026;-77
2020/12/20 11:19:58;;;;;;;0.55;0.52;;;15.00;68.10;;;;;;5010538;28;20029;-78
2020/12/20 11:22:27;;;;;;;0.88;0.80;;;15.00;68.10;;;;;;4997820;28;20117;-75
2020/12/20 11:24:59;;;;;;;0.70;0.60;;;15.00;68.10;;;;;;5000318;28;20061;-75
2020/12/20 11:27:27;;;;;;;0.80;0.68;;;15.00;68.10;;;;;;4990050;28;20045;-75
2020/12/20 11:29:56;;;;;;;0.75;0.70;;;15.00;68.10;;;;;;4984728;28;20034;-75
2020/12/20 11:32:23;;;;;;;0.80;0.65;;;15.00;68.00;;;;;;4990741;28;20050;-76
2020/12/20 11:34:50;;;;;;;1.38;0.82;;;15.00;68.00;;;;;;4994123;28;20065;-77
2020/12/20 11:37:24;;;;;;;0.77;0.75;;;15.00;68.00;;;;;;4978242;28;20069;-73
2020/12/20 11:39:52;;;;;;;0.80;0.63;;;15.10;67.90;;;;;;4986476;28;20072;-79
2020/12/20 11:42:44;;;;;;;1.02;0.75;;;15.00;67.90;;;;;;4998116;28;20073;-74
2020/12/20 11:45:26;;;;;;;0.82;0.65;;;15.00;68.00;;;;;;4996570;28;20107;-73
2020/12/20 11:47:57;;;;;;;0.85;0.75;;;15.00;68.00;;;;;;5008128;28;20061;-76
2020/12/20 11:50:25;;;;;;;0.63;0.63;;;15.00;68.00;;;;;;4995346;28;20034;-75
2020/12/20 11:52:56;;;;;;;0.77;0.68;;;15.00;68.00;;;;;;4993068;28;20041;-75
2020/12/20 11:55:23;;;;;;;1.48;0.82;;;15.00;68.10;;;;;;5005282;28;20031;-75
2020/12/20 11:57:54;;;;;;;1.08;0.60;;;15.00;68.10;;;;;;4991002;28;20050;-75
2020/12/20 12:00:35;;;;;;;0.60;0.60;;;15.00;68.10;;;;;;4967950;28;20042;-75
2020/12/20 12:03:13;;;;;;;0.63;0.50;;;15.00;68.10;;;;;;5005745;28;20049;-75
2020/12/20 12:05:44;;;;;;;0.70;0.70;;;15.00;68.10;;;;;;4998132;28;20157;-75
2020/12/20 12:08:13;;;;;;;0.50;0.40;;;15.00;68.10;;;;;;4994181;28;20061;-76
2020/12/20 12:10:52;;;;;;;1.67;0.80;;;15.00;68.10;;;;;;4993848;28;20034;-76
2020/12/20 12:13:23;;;;;;;3.00;0.85;;;15.00;68.10;;;;;;4993636;28;20057;-75
2020/12/20 12:15:49;;;;;;;0.93;0.70;;;15.00;68.00;;;;;;5011807;28;20105;-75
2020/12/20 12:18:39;;;;;;;0.60;0.60;;;15.10;68.00;;;;;;5010879;28;20034;-75
2020/12/20 12:21:26;;;;;;;1.38;0.80;;;15.00;68.00;;;;;;4996752;28;20022;-75
2020/12/20 12:24:03;;;;;;;0.50;0.50;;;15.00;68.00;;;;;;4994626;28;20022;-75
2020/12/20 12:26:33;;;;;;;0.90;0.77;;;15.10;68.00;;;;;;5009579;28;20026;-75
2020/12/20 12:29:13;;;;;;;0.68;0.68;;;15.00;68.00;;;;;;4991644;28;20033;-76
2020/12/20 12:31:46;;;;;;;0.82;0.60;;;15.00;68.00;;;;;;4998825;28;20038;-74
2020/12/20 12:34:20;;;;;;;0.70;0.70;;;15.00;68.00;;;;;;4995154;28;20387;-76
2020/12/20 12:36:47;;;;;;;0.70;0.70;;;15.00;68.00;;;;;;4995551;28;20026;-75
2020/12/20 12:39:28;;;;;;;1.08;0.90;;;15.00;68.00;;;;;;4999692;28;20034;-76
2020/12/20 12:42:01;;;;;;;0.70;0.60;;;15.00;68.10;;;;;;4978064;28;20164;-75
2020/12/20 12:44:33;;;;;;;1.27;0.88;;;15.00;68.10;;;;;;4977590;28;20042;-76
2020/12/20 12:47:02;;;;;;;1.08;0.85;;;15.00;68.10;;;;;;4997376;28;20404;-76
2020/12/20 12:49:33;;;;;;;1.23;1.00;;;15.00;68.00;;;;;;4995599;28;20033;-77
2020/12/20 12:52:09;;;;;;;0.50;0.50;;;15.00;68.00;;;;;;5001165;28;20157;-75
2020/12/20 12:54:40;;;;;;;1.00;0.82;;;15.00;68.00;;;;;;5019904;28;20081;-78
2020/12/20 12:57:25;;;;;;;0.65;0.57;;;15.00;68.10;;;;;;4993627;28;20062;-75
2020/12/20 12:59:56;;;;;;;0.60;0.57;;;15.00;68.10;;;;;;4993908;28;20398;-80
2020/12/20 13:02:27;;;;;;;0.98;0.70;;;15.00;68.00;;;;;;5006464;28;20030;-77
2020/12/20 13:05:05;;;;;;;0.50;0.50;;;15.00;68.00;;;;;;5001246;28;20044;-75
2020/12/20 13:07:54;;;;;;;0.98;0.80;;;15.00;68.10;;;;;;4999866;28;20042;-77
2020/12/20 13:10:49;;;;;;;0.60;0.55;;;15.00;68.10;;;;;;5012371;28;20518;-80
2020/12/20 13:13:20;;;;;;;0.82;0.70;;;15.00;68.10;;;;;;4991829;28;20032;-74
2020/12/20 13:15:51;;;;;;;1.10;0.80;;;15.00;68.10;;;;;;4989534;28;20121;-73
2020/12/20 13:18:18;;;;;;;0.60;0.50;;;15.00;68.10;;;;;;5001570;28;20034;-75
2020/12/20 13:20:54;;;;;;;0.75;0.65;;;15.00;68.10;;;;;;5010687;28;20026;-73